sensor_id;sensor_type;location;lat;lon;timestamp;temperature;humidity
12125;DHT22;6126;57.908;16.490;2022-09-09T00:04:36;14.50;71.10
12125;DHT22;6126;57.908;16.490;2022-09-09T00:10:31;14.70;71.30
12125;DHT22;6126;57.908;16.490;2022-09-09T00:16:19;14.60;71.10
12125;DHT22;6126;57.908;16.490;2022-09-09T00:21:36;14.50;70.90
12125;DHT22;6126;57.908;16.490;2022-09-09T00:27:31;14.50;70.80
12125;DHT22;6126;57.908;16.490;2022-09-09T00:32:47;14.60;70.90
12125;DHT22;6126;57.908;16.490;2022-09-09T00:35:24;14.40;70.60
12125;DHT22;6126;57.908;16.490;2022-09-09T00:38:00;14.40;70.70
12125;DHT22;6126;57.908;16.490;2022-09-09T00:40:35;14.40;70.70
12125;DHT22;6126;57.908;16.490;2022-09-09T00:43:35;14.40;71.50
12125;DHT22;6126;57.908;16.490;2022-09-09T00:52:22;14.50;70.70
12125;DHT22;6126;57.908;16.490;2022-09-09T00:58:09;14.40;70.50
12125;DHT22;6126;57.908;16.490;2022-09-09T01:06:02;14.60;71.50
12125;DHT22;6126;57.908;16.490;2022-09-09T01:11:33;14.40;70.50
12125;DHT22;6126;57.908;16.490;2022-09-09T01:22:52;14.40;70.50
12125;DHT22;6126;57.908;16.490;2022-09-09T01:28:19;14.70;70.80
12125;DHT22;6126;57.908;16.490;2022-09-09T01:30:48;14.20;70.30
12125;DHT22;6126;57.908;16.490;2022-09-09T01:33:17;14.60;70.80
12125;DHT22;6126;57.908;16.490;2022-09-09T01:38:29;14.40;70.70
12125;DHT22;6126;57.908;16.490;2022-09-09T01:40:57;14.30;70.70
12125;DHT22;6126;57.908;16.490;2022-09-09T01:43:24;14.60;71.10
12125;DHT22;6126;57.908;16.490;2022-09-09T01:45:54;14.50;71.00
12125;DHT22;6126;57.908;16.490;2022-09-09T01:48:22;14.20;70.80
12125;DHT22;6126;57.908;16.490;2022-09-09T01:50:50;14.40;71.00
12125;DHT22;6126;57.908;16.490;2022-09-09T01:53:17;14.50;71.30
12125;DHT22;6126;57.908;16.490;2022-09-09T02:01:34;14.40;71.50
12125;DHT22;6126;57.908;16.490;2022-09-09T02:09:44;14.60;71.90
12125;DHT22;6126;57.908;16.490;2022-09-09T02:12:18;14.30;71.60
12125;DHT22;6126;57.908;16.490;2022-09-09T02:14:52;14.50;71.80
12125;DHT22;6126;57.908;16.490;2022-09-09T02:17:31;14.20;71.60
12125;DHT22;6126;57.908;16.490;2022-09-09T02:20:20;14.30;71.70
12125;DHT22;6126;57.908;16.490;2022-09-09T02:22:50;14.20;71.70
12125;DHT22;6126;57.908;16.490;2022-09-09T02:25:20;14.50;72.00
12125;DHT22;6126;57.908;16.490;2022-09-09T02:27:50;14.20;71.70
12125;DHT22;6126;57.908;16.490;2022-09-09T02:30:20;14.20;71.70
12125;DHT22;6126;57.908;16.490;2022-09-09T02:32:47;14.50;72.10
12125;DHT22;6126;57.908;16.490;2022-09-09T02:35:19;14.30;71.90
12125;DHT22;6126;57.908;16.490;2022-09-09T02:37:51;14.20;71.90
12125;DHT22;6126;57.908;16.490;2022-09-09T02:40:20;14.30;72.10
12125;DHT22;6126;57.908;16.490;2022-09-09T02:42:48;14.30;72.10
12125;DHT22;6126;57.908;16.490;2022-09-09T02:45:19;14.30;72.20
12125;DHT22;6126;57.908;16.490;2022-09-09T02:48:28;14.10;72.00
12125;DHT22;6126;57.908;16.490;2022-09-09T02:51:15;14.20;72.30
12125;DHT22;6126;57.908;16.490;2022-09-09T02:56:40;14.00;72.30
12125;DHT22;6126;57.908;16.490;2022-09-09T02:59:09;14.30;72.80
12125;DHT22;6126;57.908;16.490;2022-09-09T03:01:36;14.00;72.50
12125;DHT22;6126;57.908;16.490;2022-09-09T03:04:04;14.00;72.60
12125;DHT22;6126;57.908;16.490;2022-09-09T03:06:30;14.50;73.10
12125;DHT22;6126;57.908;16.490;2022-09-09T03:08:56;14.20;72.70
12125;DHT22;6126;57.908;16.490;2022-09-09T03:11:24;14.30;73.10
12125;DHT22;6126;57.908;16.490;2022-09-09T03:13:50;14.40;73.10
12125;DHT22;6126;57.908;16.490;2022-09-09T03:16:16;14.30;73.10
12125;DHT22;6126;57.908;16.490;2022-09-09T03:18:43;14.10;72.80
12125;DHT22;6126;57.908;16.490;2022-09-09T03:21:11;14.20;72.90
12125;DHT22;6126;57.908;16.490;2022-09-09T03:23:37;14.30;73.10
12125;DHT22;6126;57.908;16.490;2022-09-09T03:26:02;14.20;73.10
12125;DHT22;6126;57.908;16.490;2022-09-09T03:28:28;14.20;73.10
12125;DHT22;6126;57.908;16.490;2022-09-09T03:31:04;14.40;73.40
12125;DHT22;6126;57.908;16.490;2022-09-09T03:33:30;14.40;73.40
12125;DHT22;6126;57.908;16.490;2022-09-09T03:35:57;14.40;73.50
12125;DHT22;6126;57.908;16.490;2022-09-09T03:38:24;14.20;73.30
12125;DHT22;6126;57.908;16.490;2022-09-09T03:40:55;14.20;73.40
12125;DHT22;6126;57.908;16.490;2022-09-09T03:43:26;14.20;73.40
12125;DHT22;6126;57.908;16.490;2022-09-09T03:45:53;14.10;73.30
12125;DHT22;6126;57.908;16.490;2022-09-09T03:48:22;14.30;73.60
12125;DHT22;6126;57.908;16.490;2022-09-09T03:50:52;14.50;73.80
12125;DHT22;6126;57.908;16.490;2022-09-09T03:53:20;14.20;73.60
12125;DHT22;6126;57.908;16.490;2022-09-09T03:55:52;14.10;73.50
12125;DHT22;6126;57.908;16.490;2022-09-09T03:58:21;14.20;73.70
12125;DHT22;6126;57.908;16.490;2022-09-09T04:01:04;14.20;73.80
12125;DHT22;6126;57.908;16.490;2022-09-09T04:03:34;14.00;73.70
12125;DHT22;6126;57.908;16.490;2022-09-09T04:06:01;14.50;74.30
12125;DHT22;6126;57.908;16.490;2022-09-09T04:08:29;14.40;74.20
12125;DHT22;6126;57.908;16.490;2022-09-09T04:10:59;14.10;74.00
12125;DHT22;6126;57.908;16.490;2022-09-09T04:13:30;14.20;74.20
12125;DHT22;6126;57.908;16.490;2022-09-09T04:15:58;14.30;74.40
12125;DHT22;6126;57.908;16.490;2022-09-09T04:18:25;14.20;74.40
12125;DHT22;6126;57.908;16.490;2022-09-09T04:20:53;13.90;74.20
12125;DHT22;6126;57.908;16.490;2022-09-09T04:23:23;14.10;74.50
12125;DHT22;6126;57.908;16.490;2022-09-09T04:25:52;14.30;74.90
12125;DHT22;6126;57.908;16.490;2022-09-09T04:28:21;14.10;74.70
12125;DHT22;6126;57.908;16.490;2022-09-09T04:30:49;14.20;74.90
12125;DHT22;6126;57.908;16.490;2022-09-09T04:33:15;14.10;74.90
12125;DHT22;6126;57.908;16.490;2022-09-09T04:35:47;14.00;74.90
12125;DHT22;6126;57.908;16.490;2022-09-09T04:38:15;14.20;75.10
12125;DHT22;6126;57.908;16.490;2022-09-09T04:40:43;14.10;75.00
12125;DHT22;6126;57.908;16.490;2022-09-09T04:43:12;14.10;75.10
12125;DHT22;6126;57.908;16.490;2022-09-09T04:45:40;14.50;75.60
12125;DHT22;6126;57.908;16.490;2022-09-09T04:48:07;14.30;75.30
12125;DHT22;6126;57.908;16.490;2022-09-09T04:50:33;14.50;75.60
12125;DHT22;6126;57.908;16.490;2022-09-09T04:53:03;14.50;75.50
12125;DHT22;6126;57.908;16.490;2022-09-09T04:55:31;14.20;75.30
12125;DHT22;6126;57.908;16.490;2022-09-09T04:57:57;14.10;75.10
12125;DHT22;6126;57.908;16.490;2022-09-09T05:00:24;14.60;75.60
12125;DHT22;6126;57.908;16.490;2022-09-09T05:02:50;14.50;75.60
12125;DHT22;6126;57.908;16.490;2022-09-09T05:05:16;14.50;75.60
12125;DHT22;6126;57.908;16.490;2022-09-09T05:07:43;14.70;75.70
12125;DHT22;6126;57.908;16.490;2022-09-09T05:10:09;14.60;75.60
12125;DHT22;6126;57.908;16.490;2022-09-09T05:12:36;14.40;75.40
12125;DHT22;6126;57.908;16.490;2022-09-09T05:15:01;14.70;75.70
12125;DHT22;6126;57.908;16.490;2022-09-09T05:17:28;14.60;75.60
12125;DHT22;6126;57.908;16.490;2022-09-09T05:19:54;14.80;75.70
12125;DHT22;6126;57.908;16.490;2022-09-09T05:22:20;14.70;75.60
12125;DHT22;6126;57.908;16.490;2022-09-09T05:24:49;14.80;75.70
12125;DHT22;6126;57.908;16.490;2022-09-09T05:27:18;14.60;75.40
12125;DHT22;6126;57.908;16.490;2022-09-09T05:29:47;14.60;75.50
12125;DHT22;6126;57.908;16.490;2022-09-09T05:32:13;14.80;75.80
12125;DHT22;6126;57.908;16.490;2022-09-09T05:34:41;14.70;75.80
12125;DHT22;6126;57.908;16.490;2022-09-09T05:37:07;14.70;75.90
12125;DHT22;6126;57.908;16.490;2022-09-09T05:39:33;14.80;76.10
12125;DHT22;6126;57.908;16.490;2022-09-09T05:42:02;14.60;76.00
12125;DHT22;6126;57.908;16.490;2022-09-09T05:44:30;15.00;76.40
12125;DHT22;6126;57.908;16.490;2022-09-09T05:46:56;15.00;76.40
12125;DHT22;6126;57.908;16.490;2022-09-09T05:49:23;14.70;76.00
12125;DHT22;6126;57.908;16.490;2022-09-09T05:51:49;14.80;76.10
12125;DHT22;6126;57.908;16.490;2022-09-09T05:54:16;15.10;76.40
12125;DHT22;6126;57.908;16.490;2022-09-09T05:56:42;14.70;75.90
12125;DHT22;6126;57.908;16.490;2022-09-09T05:59:08;15.10;76.30
12125;DHT22;6126;57.908;16.490;2022-09-09T06:01:36;14.90;76.00
12125;DHT22;6126;57.908;16.490;2022-09-09T06:04:06;15.00;76.10
12125;DHT22;6126;57.908;16.490;2022-09-09T06:06:37;14.80;75.90
12125;DHT22;6126;57.908;16.490;2022-09-09T06:09:06;15.10;76.10
12125;DHT22;6126;57.908;16.490;2022-09-09T06:11:36;15.20;76.00
12125;DHT22;6126;57.908;16.490;2022-09-09T06:14:05;15.10;75.80
12125;DHT22;6126;57.908;16.490;2022-09-09T06:16:33;15.60;76.20
12125;DHT22;6126;57.908;16.490;2022-09-09T06:18:59;15.40;75.90
12125;DHT22;6126;57.908;16.490;2022-09-09T06:21:34;15.40;75.80
12125;DHT22;6126;57.908;16.490;2022-09-09T06:24:05;15.40;75.70
12125;DHT22;6126;57.908;16.490;2022-09-09T06:26:39;15.80;76.10
12125;DHT22;6126;57.908;16.490;2022-09-09T06:29:10;15.70;75.80
12125;DHT22;6126;57.908;16.490;2022-09-09T06:31:37;15.60;75.60
12125;DHT22;6126;57.908;16.490;2022-09-09T06:34:05;15.80;75.80
12125;DHT22;6126;57.908;16.490;2022-09-09T06:36:34;15.50;75.40
12125;DHT22;6126;57.908;16.490;2022-09-09T06:39:03;15.60;75.50
12125;DHT22;6126;57.908;16.490;2022-09-09T06:41:31;15.80;75.80
12125;DHT22;6126;57.908;16.490;2022-09-09T06:43:58;15.60;75.70
12125;DHT22;6126;57.908;16.490;2022-09-09T06:46:26;15.70;75.80
12125;DHT22;6126;57.908;16.490;2022-09-09T06:48:58;15.60;75.70
12125;DHT22;6126;57.908;16.490;2022-09-09T06:51:35;15.80;76.00
12125;DHT22;6126;57.908;16.490;2022-09-09T06:54:07;15.40;75.50
12125;DHT22;6126;57.908;16.490;2022-09-09T06:56:38;15.50;75.60
12125;DHT22;6126;57.908;16.490;2022-09-09T06:59:09;15.70;75.70
12125;DHT22;6126;57.908;16.490;2022-09-09T07:01:38;15.70;75.80
12125;DHT22;6126;57.908;16.490;2022-09-09T07:04:06;15.50;75.50
12125;DHT22;6126;57.908;16.490;2022-09-09T07:06:39;15.80;75.70
12125;DHT22;6126;57.908;16.490;2022-09-09T07:09:10;16.10;75.90
12125;DHT22;6126;57.908;16.490;2022-09-09T07:11:41;16.00;75.60
12125;DHT22;6126;57.908;16.490;2022-09-09T07:14:09;15.80;75.40
12125;DHT22;6126;57.908;16.490;2022-09-09T07:16:40;15.80;75.30
12125;DHT22;6126;57.908;16.490;2022-09-09T07:19:10;16.00;75.30
12125;DHT22;6126;57.908;16.490;2022-09-09T07:21:36;16.20;75.30
12125;DHT22;6126;57.908;16.490;2022-09-09T07:24:03;16.40;75.30
12125;DHT22;6126;57.908;16.490;2022-09-09T07:26:32;16.20;74.90
12125;DHT22;6126;57.908;16.490;2022-09-09T07:28:59;16.40;75.00
12125;DHT22;6126;57.908;16.490;2022-09-09T07:31:33;16.40;75.00
12125;DHT22;6126;57.908;16.490;2022-09-09T07:34:02;16.20;74.70
12125;DHT22;6126;57.908;16.490;2022-09-09T07:36:35;16.20;74.70
12125;DHT22;6126;57.908;16.490;2022-09-09T07:39:08;16.00;74.40
12125;DHT22;6126;57.908;16.490;2022-09-09T07:41:44;16.20;74.60
12125;DHT22;6126;57.908;16.490;2022-09-09T07:44:23;16.20;74.50
12125;DHT22;6126;57.908;16.490;2022-09-09T07:46:50;16.30;74.50
12125;DHT22;6126;57.908;16.490;2022-09-09T07:49:16;16.20;74.30
12125;DHT22;6126;57.908;16.490;2022-09-09T07:51:46;16.50;74.50
12125;DHT22;6126;57.908;16.490;2022-09-09T07:54:15;16.10;73.90
12125;DHT22;6126;57.908;16.490;2022-09-09T07:56:45;16.40;74.20
12125;DHT22;6126;57.908;16.490;2022-09-09T07:59:12;16.50;74.20
12125;DHT22;6126;57.908;16.490;2022-09-09T08:01:47;16.40;74.00
12125;DHT22;6126;57.908;16.490;2022-09-09T08:04:20;16.40;73.90
12125;DHT22;6126;57.908;16.490;2022-09-09T08:06:59;16.60;74.10
12125;DHT22;6126;57.908;16.490;2022-09-09T08:09:27;16.30;73.70
12125;DHT22;6126;57.908;16.490;2022-09-09T08:11:55;16.40;73.80
12125;DHT22;6126;57.908;16.490;2022-09-09T08:14:25;16.70;74.00
12125;DHT22;6126;57.908;16.490;2022-09-09T08:16:51;16.40;73.40
12125;DHT22;6126;57.908;16.490;2022-09-09T08:19:19;16.50;73.40
12125;DHT22;6126;57.908;16.490;2022-09-09T08:21:46;16.40;73.10
12125;DHT22;6126;57.908;16.490;2022-09-09T08:24:12;16.60;73.30
12125;DHT22;6126;57.908;16.490;2022-09-09T08:26:43;16.60;73.20
12125;DHT22;6126;57.908;16.490;2022-09-09T08:29:12;16.70;73.30
12125;DHT22;6126;57.908;16.490;2022-09-09T08:31:50;16.70;73.20
12125;DHT22;6126;57.908;16.490;2022-09-09T08:34:20;16.90;73.30
12125;DHT22;6126;57.908;16.490;2022-09-09T08:36:48;16.60;72.90
12125;DHT22;6126;57.908;16.490;2022-09-09T08:39:17;16.70;73.00
12125;DHT22;6126;57.908;16.490;2022-09-09T08:47:28;17.10;73.20
12125;DHT22;6126;57.908;16.490;2022-09-09T08:55:59;17.30;72.80
12125;DHT22;6126;57.908;16.490;2022-09-09T08:58:28;17.30;72.70
12125;DHT22;6126;57.908;16.490;2022-09-09T09:04:46;17.30;72.50
12125;DHT22;6126;57.908;16.490;2022-09-09T09:07:35;17.30;72.30
12125;DHT22;6126;57.908;16.490;2022-09-09T09:10:35;17.40;72.20
12125;DHT22;6126;57.908;16.490;2022-09-09T09:13:15;17.30;71.90
12125;DHT22;6126;57.908;16.490;2022-09-09T09:15:52;17.50;72.00
12125;DHT22;6126;57.908;16.490;2022-09-09T09:18:22;17.50;71.80
12125;DHT22;6126;57.908;16.490;2022-09-09T09:21:32;17.40;71.50
12125;DHT22;6126;57.908;16.490;2022-09-09T09:23:59;17.70;71.60
12125;DHT22;6126;57.908;16.490;2022-09-09T09:26:31;17.60;71.40
12125;DHT22;6126;57.908;16.490;2022-09-09T09:29:03;17.70;71.60
12125;DHT22;6126;57.908;16.490;2022-09-09T09:31:38;17.70;71.30
12125;DHT22;6126;57.908;16.490;2022-09-09T09:34:04;17.90;71.40
12125;DHT22;6126;57.908;16.490;2022-09-09T09:36:37;18.10;71.60
12125;DHT22;6126;57.908;16.490;2022-09-09T09:39:06;18.10;71.40
12125;DHT22;6126;57.908;16.490;2022-09-09T09:41:41;18.10;71.30
12125;DHT22;6126;57.908;16.490;2022-09-09T09:44:30;18.00;71.10
12125;DHT22;6126;57.908;16.490;2022-09-09T09:47:08;17.90;71.00
12125;DHT22;6126;57.908;16.490;2022-09-09T09:49:34;18.10;71.20
12125;DHT22;6126;57.908;16.490;2022-09-09T09:52:02;18.00;71.00
12125;DHT22;6126;57.908;16.490;2022-09-09T09:54:31;17.90;71.00
12125;DHT22;6126;57.908;16.490;2022-09-09T09:57:09;17.90;71.00
12125;DHT22;6126;57.908;16.490;2022-09-09T09:59:37;18.10;71.40
12125;DHT22;6126;57.908;16.490;2022-09-09T10:02:26;18.00;71.20
12125;DHT22;6126;57.908;16.490;2022-09-09T10:05:16;18.00;71.20
12125;DHT22;6126;57.908;16.490;2022-09-09T10:07:42;18.20;71.20
12125;DHT22;6126;57.908;16.490;2022-09-09T10:10:23;18.20;71.20
12125;DHT22;6126;57.908;16.490;2022-09-09T10:19:05;17.90;70.70
12125;DHT22;6126;57.908;16.490;2022-09-09T10:28:21;18.30;70.80
12125;DHT22;6126;57.908;16.490;2022-09-09T10:31:19;18.20;70.80
12125;DHT22;6126;57.908;16.490;2022-09-09T10:36:58;18.30;71.10
12125;DHT22;6126;57.908;16.490;2022-09-09T10:39:38;18.30;71.10
12125;DHT22;6126;57.908;16.490;2022-09-09T10:42:14;18.40;71.20
12125;DHT22;6126;57.908;16.490;2022-09-09T11:00:06;18.70;70.50
12125;DHT22;6126;57.908;16.490;2022-09-09T11:02:56;18.70;70.40
12125;DHT22;6126;57.908;16.490;2022-09-09T11:05:26;18.80;70.20
12125;DHT22;6126;57.908;16.490;2022-09-09T11:08:05;18.80;70.10
12125;DHT22;6126;57.908;16.490;2022-09-09T11:10:51;19.00;70.10
12125;DHT22;6126;57.908;16.490;2022-09-09T11:16:52;18.90;70.00
12125;DHT22;6126;57.908;16.490;2022-09-09T11:22:13;18.80;69.30
12125;DHT22;6126;57.908;16.490;2022-09-09T11:24:52;19.20;69.60
12125;DHT22;6126;57.908;16.490;2022-09-09T11:30:38;19.30;69.60
12125;DHT22;6126;57.908;16.490;2022-09-09T11:41:36;19.50;69.10
12125;DHT22;6126;57.908;16.490;2022-09-09T11:44:17;19.50;69.00
12125;DHT22;6126;57.908;16.490;2022-09-09T11:46:55;19.50;69.10
12125;DHT22;6126;57.908;16.490;2022-09-09T11:49:39;19.50;69.10
12125;DHT22;6126;57.908;16.490;2022-09-09T11:52:40;19.50;68.90
12125;DHT22;6126;57.908;16.490;2022-09-09T11:55:31;19.50;68.80
12125;DHT22;6126;57.908;16.490;2022-09-09T12:03:54;19.40;68.70
12125;DHT22;6126;57.908;16.490;2022-09-09T12:06:18;19.50;68.60
12125;DHT22;6126;57.908;16.490;2022-09-09T12:09:18;19.60;68.60
12125;DHT22;6126;57.908;16.490;2022-09-09T12:11:52;19.60;68.40
12125;DHT22;6126;57.908;16.490;2022-09-09T12:14:55;19.70;68.40
12125;DHT22;6126;57.908;16.490;2022-09-09T12:17:28;19.60;68.10
12125;DHT22;6126;57.908;16.490;2022-09-09T12:29:20;18.50;69.50
12125;DHT22;6126;57.908;16.490;2022-09-09T12:34:53;18.50;69.80
12125;DHT22;6126;57.908;16.490;2022-09-09T12:37:32;18.40;69.70
12125;DHT22;6126;57.908;16.490;2022-09-09T12:40:05;18.50;69.80
12125;DHT22;6126;57.908;16.490;2022-09-09T12:42:44;18.30;69.60
12125;DHT22;6126;57.908;16.490;2022-09-09T12:45:22;18.30;70.40
12125;DHT22;6126;57.908;16.490;2022-09-09T12:48:11;18.20;69.60
12125;DHT22;6126;57.908;16.490;2022-09-09T12:50:48;18.30;69.70
12125;DHT22;6126;57.908;16.490;2022-09-09T12:53:26;18.10;69.70
12125;DHT22;6126;57.908;16.490;2022-09-09T12:56:06;18.10;69.70
12125;DHT22;6126;57.908;16.490;2022-09-09T12:58:36;18.50;70.00
12125;DHT22;6126;57.908;16.490;2022-09-09T13:01:04;18.20;69.50
12125;DHT22;6126;57.908;16.490;2022-09-09T13:03:33;18.30;69.50
12125;DHT22;6126;57.908;16.490;2022-09-09T13:06:13;18.20;69.20
12125;DHT22;6126;57.908;16.490;2022-09-09T13:08:45;18.70;69.60
12125;DHT22;6126;57.908;16.490;2022-09-09T13:11:14;18.50;69.30
12125;DHT22;6126;57.908;16.490;2022-09-09T13:13:51;18.70;69.50
12125;DHT22;6126;57.908;16.490;2022-09-09T13:16:26;18.40;69.30
12125;DHT22;6126;57.908;16.490;2022-09-09T13:19:10;18.50;69.70
12125;DHT22;6126;57.908;16.490;2022-09-09T13:21:40;18.40;69.80
12125;DHT22;6126;57.908;16.490;2022-09-09T13:24:22;18.30;69.90
12125;DHT22;6126;57.908;16.490;2022-09-09T13:29:55;18.10;70.20
12125;DHT22;6126;57.908;16.490;2022-09-09T13:32:23;18.00;70.20
12125;DHT22;6126;57.908;16.490;2022-09-09T13:35:00;18.00;70.40
12125;DHT22;6126;57.908;16.490;2022-09-09T13:37:39;18.00;70.50
12125;DHT22;6126;57.908;16.490;2022-09-09T13:40:19;18.00;70.70
12125;DHT22;6126;57.908;16.490;2022-09-09T13:42:47;17.70;70.60
12125;DHT22;6126;57.908;16.490;2022-09-09T13:45:21;17.80;70.80
12125;DHT22;6126;57.908;16.490;2022-09-09T13:47:50;17.80;70.80
12125;DHT22;6126;57.908;16.490;2022-09-09T13:50:25;17.80;70.80
12125;DHT22;6126;57.908;16.490;2022-09-09T13:52:58;18.00;71.00
12125;DHT22;6126;57.908;16.490;2022-09-09T13:55:28;17.80;70.90
12125;DHT22;6126;57.908;16.490;2022-09-09T13:57:57;17.70;70.90
12125;DHT22;6126;57.908;16.490;2022-09-09T14:00:31;17.50;70.70
12125;DHT22;6126;57.908;16.490;2022-09-09T14:02:58;17.60;71.00
12125;DHT22;6126;57.908;16.490;2022-09-09T14:05:29;17.60;71.10
12125;DHT22;6126;57.908;16.490;2022-09-09T14:07:57;17.30;71.00
12125;DHT22;6126;57.908;16.490;2022-09-09T14:10:23;17.30;71.10
12125;DHT22;6126;57.908;16.490;2022-09-09T14:12:49;17.50;71.50
12125;DHT22;6126;57.908;16.490;2022-09-09T14:15:15;17.30;71.40
12125;DHT22;6126;57.908;16.490;2022-09-09T14:17:41;17.30;71.60
12125;DHT22;6126;57.908;16.490;2022-09-09T14:20:09;17.50;71.90
12125;DHT22;6126;57.908;16.490;2022-09-09T14:22:37;17.20;71.70
12125;DHT22;6126;57.908;16.490;2022-09-09T14:25:05;17.00;71.60
12125;DHT22;6126;57.908;16.490;2022-09-09T14:27:31;17.30;72.00
12125;DHT22;6126;57.908;16.490;2022-09-09T14:29:58;17.30;72.20
12125;DHT22;6126;57.908;16.490;2022-09-09T14:32:25;17.20;72.20
12125;DHT22;6126;57.908;16.490;2022-09-09T14:34:52;17.10;72.20
12125;DHT22;6126;57.908;16.490;2022-09-09T14:37:18;17.00;72.10
12125;DHT22;6126;57.908;16.490;2022-09-09T14:39:44;17.10;72.30
12125;DHT22;6126;57.908;16.490;2022-09-09T14:42:15;17.20;72.50
12125;DHT22;6126;57.908;16.490;2022-09-09T14:44:41;17.00;72.40
12125;DHT22;6126;57.908;16.490;2022-09-09T14:47:08;17.00;72.50
12125;DHT22;6126;57.908;16.490;2022-09-09T14:49:37;16.80;72.40
12125;DHT22;6126;57.908;16.490;2022-09-09T14:52:04;16.80;72.40
12125;DHT22;6126;57.908;16.490;2022-09-09T14:54:31;16.90;72.60
12125;DHT22;6126;57.908;16.490;2022-09-09T14:56:57;16.80;72.60
12125;DHT22;6126;57.908;16.490;2022-09-09T14:59:24;16.90;72.70
12125;DHT22;6126;57.908;16.490;2022-09-09T15:01:50;17.00;72.80
12125;DHT22;6126;57.908;16.490;2022-09-09T15:04:15;17.00;72.90
12125;DHT22;6126;57.908;16.490;2022-09-09T15:06:42;17.00;72.90
12125;DHT22;6126;57.908;16.490;2022-09-09T15:09:12;16.90;72.90
12125;DHT22;6126;57.908;16.490;2022-09-09T15:11:38;16.80;73.00
12125;DHT22;6126;57.908;16.490;2022-09-09T15:14:05;16.90;73.10
12125;DHT22;6126;57.908;16.490;2022-09-09T15:16:33;16.80;73.20
12125;DHT22;6126;57.908;16.490;2022-09-09T15:19:01;16.70;73.10
12125;DHT22;6126;57.908;16.490;2022-09-09T15:21:31;16.70;73.20
12125;DHT22;6126;57.908;16.490;2022-09-09T15:23:59;16.70;73.30
12125;DHT22;6126;57.908;16.490;2022-09-09T15:26:25;17.00;73.70
12125;DHT22;6126;57.908;16.490;2022-09-09T15:28:51;16.60;73.40
12125;DHT22;6126;57.908;16.490;2022-09-09T15:33:51;16.60;73.60
12125;DHT22;6126;57.908;16.490;2022-09-09T15:38:50;16.50;73.80
12125;DHT22;6126;57.908;16.490;2022-09-09T15:41:18;16.70;74.20
12125;DHT22;6126;57.908;16.490;2022-09-09T15:43:47;16.40;74.00
12125;DHT22;6126;57.908;16.490;2022-09-09T15:48:56;16.60;74.40
12125;DHT22;6126;57.908;16.490;2022-09-09T15:51:25;16.50;74.40
12125;DHT22;6126;57.908;16.490;2022-09-09T15:53:58;16.30;74.30
12125;DHT22;6126;57.908;16.490;2022-09-09T15:56:25;16.40;75.30
12125;DHT22;6126;57.908;16.490;2022-09-09T15:59:02;16.20;74.30
12125;DHT22;6126;57.908;16.490;2022-09-09T16:01:29;16.20;74.40
12125;DHT22;6126;57.908;16.490;2022-09-09T16:03:57;16.30;74.70
12125;DHT22;6126;57.908;16.490;2022-09-09T16:06:26;16.30;74.80
12125;DHT22;6126;57.908;16.490;2022-09-09T16:08:55;16.30;74.90
12125;DHT22;6126;57.908;16.490;2022-09-09T16:11:31;16.30;74.90
12125;DHT22;6126;57.908;16.490;2022-09-09T16:14:00;16.60;75.30
12125;DHT22;6126;57.908;16.490;2022-09-09T16:16:29;16.00;74.60
12125;DHT22;6126;57.908;16.490;2022-09-09T16:18:57;16.20;74.80
12125;DHT22;6126;57.908;16.490;2022-09-09T16:21:30;16.20;74.80
12125;DHT22;6126;57.908;16.490;2022-09-09T16:23:59;16.30;75.00
12125;DHT22;6126;57.908;16.490;2022-09-09T16:26:29;16.10;74.80
12125;DHT22;6126;57.908;16.490;2022-09-09T16:28:57;16.40;75.00
12125;DHT22;6126;57.908;16.490;2022-09-09T16:31:25;16.50;75.20
12125;DHT22;6126;57.908;16.490;2022-09-09T16:33:53;16.30;75.00
12125;DHT22;6126;57.908;16.490;2022-09-09T16:36:21;16.50;75.30
12125;DHT22;6126;57.908;16.490;2022-09-09T16:38:52;16.40;75.10
12125;DHT22;6126;57.908;16.490;2022-09-09T16:41:23;16.10;74.80
12125;DHT22;6126;57.908;16.490;2022-09-09T16:43:54;16.30;75.10
12125;DHT22;6126;57.908;16.490;2022-09-09T16:46:30;16.20;74.90
12125;DHT22;6126;57.908;16.490;2022-09-09T16:48:58;16.20;75.00
12125;DHT22;6126;57.908;16.490;2022-09-09T16:51:28;16.40;75.20
12125;DHT22;6126;57.908;16.490;2022-09-09T16:54:16;16.10;74.90
12125;DHT22;6126;57.908;16.490;2022-09-09T16:56:45;16.50;75.30
12125;DHT22;6126;57.908;16.490;2022-09-09T16:59:15;16.30;75.10
12125;DHT22;6126;57.908;16.490;2022-09-09T17:01:43;16.30;75.10
12125;DHT22;6126;57.908;16.490;2022-09-09T17:04:15;16.20;75.00
12125;DHT22;6126;57.908;16.490;2022-09-09T17:06:47;16.40;75.30
12125;DHT22;6126;57.908;16.490;2022-09-09T17:09:18;16.30;75.30
12125;DHT22;6126;57.908;16.490;2022-09-09T17:11:44;16.40;75.30
12125;DHT22;6126;57.908;16.490;2022-09-09T17:14:14;16.20;75.30
12125;DHT22;6126;57.908;16.490;2022-09-09T17:16:43;16.20;75.20
12125;DHT22;6126;57.908;16.490;2022-09-09T17:19:10;16.10;75.10
12125;DHT22;6126;57.908;16.490;2022-09-09T17:21:37;15.90;74.90
12125;DHT22;6126;57.908;16.490;2022-09-09T17:24:03;16.20;75.20
12125;DHT22;6126;57.908;16.490;2022-09-09T17:26:31;16.40;75.50
12125;DHT22;6126;57.908;16.490;2022-09-09T17:28:59;16.20;75.30
12125;DHT22;6126;57.908;16.490;2022-09-09T17:31:28;16.20;75.30
12125;DHT22;6126;57.908;16.490;2022-09-09T17:33:55;16.10;75.20
12125;DHT22;6126;57.908;16.490;2022-09-09T17:36:25;16.10;75.20
12125;DHT22;6126;57.908;16.490;2022-09-09T17:38:53;16.20;75.40
12125;DHT22;6126;57.908;16.490;2022-09-09T17:41:27;16.30;75.50
12125;DHT22;6126;57.908;16.490;2022-09-09T17:43:55;15.90;75.00
12125;DHT22;6126;57.908;16.490;2022-09-09T17:46:28;16.30;75.50
12125;DHT22;6126;57.908;16.490;2022-09-09T17:48:59;16.00;75.20
12125;DHT22;6126;57.908;16.490;2022-09-09T17:51:29;16.00;76.00
12125;DHT22;6126;57.908;16.490;2022-09-09T17:54:05;16.10;75.40
12125;DHT22;6126;57.908;16.490;2022-09-09T17:56:35;16.00;75.30
12125;DHT22;6126;57.908;16.490;2022-09-09T17:59:03;16.00;75.30
12125;DHT22;6126;57.908;16.490;2022-09-09T18:01:34;16.20;75.50
12125;DHT22;6126;57.908;16.490;2022-09-09T18:04:03;16.00;75.40
12125;DHT22;6126;57.908;16.490;2022-09-09T18:06:36;16.10;75.50
12125;DHT22;6126;57.908;16.490;2022-09-09T18:09:06;16.00;75.40
12125;DHT22;6126;57.908;16.490;2022-09-09T18:11:38;16.20;75.60
12125;DHT22;6126;57.908;16.490;2022-09-09T18:14:14;16.00;75.50
12125;DHT22;6126;57.908;16.490;2022-09-09T18:16:42;16.10;75.60
12125;DHT22;6126;57.908;16.490;2022-09-09T18:19:12;16.00;75.50
12125;DHT22;6126;57.908;16.490;2022-09-09T18:21:41;16.20;75.70
12125;DHT22;6126;57.908;16.490;2022-09-09T18:24:10;16.10;75.70
12125;DHT22;6126;57.908;16.490;2022-09-09T18:26:37;15.80;75.40
12125;DHT22;6126;57.908;16.490;2022-09-09T18:29:07;16.00;75.80
12125;DHT22;6126;57.908;16.490;2022-09-09T18:31:35;16.10;75.90
12125;DHT22;6126;57.908;16.490;2022-09-09T18:34:06;16.30;76.20